sensor_id;sensor_type;location;lat;lon;timestamp;temperature;humidity
38333;DHT22;25748;46.670;14.272;2023-04-15T00:01:23;6.30;76.00
38333;DHT22;25748;46.670;14.272;2023-04-15T00:03:51;6.30;76.00
38333;DHT22;25748;46.670;14.272;2023-04-15T00:06:22;6.30;76.10
38333;DHT22;25748;46.670;14.272;2023-04-15T00:08:48;6.30;76.20
38333;DHT22;25748;46.670;14.272;2023-04-15T00:11:15;6.20;76.20
38333;DHT22;25748;46.670;14.272;2023-04-15T00:13:41;6.30;76.40
38333;DHT22;25748;46.670;14.272;2023-04-15T00:16:08;6.30;76.40
38333;DHT22;25748;46.670;14.272;2023-04-15T00:18:35;6.20;76.40
38333;DHT22;25748;46.670;14.272;2023-04-15T00:21:01;6.20;76.40
38333;DHT22;25748;46.670;14.272;2023-04-15T00:23:27;6.20;76.20
38333;DHT22;25748;46.670;14.272;2023-04-15T00:25:53;6.20;76.40
38333;DHT22;25748;46.670;14.272;2023-04-15T00:28:19;6.20;76.20
38333;DHT22;25748;46.670;14.272;2023-04-15T00:30:45;6.20;76.20
38333;DHT22;25748;46.670;14.272;2023-04-15T00:33:12;6.10;76.00
38333;DHT22;25748;46.670;14.272;2023-04-15T00:35:38;6.10;76.20
38333;DHT22;25748;46.670;14.272;2023-04-15T00:38:04;6.10;76.50
38333;DHT22;25748;46.670;14.272;2023-04-15T00:40:31;6.10;76.60
38333;DHT22;25748;46.670;14.272;2023-04-15T00:42:56;6.10;76.50
38333;DHT22;25748;46.670;14.272;2023-04-15T00:45:22;6.10;76.70
38333;DHT22;25748;46.670;14.272;2023-04-15T00:47:48;6.10;76.80
38333;DHT22;25748;46.670;14.272;2023-04-15T00:50:15;6.10;76.70
38333;DHT22;25748;46.670;14.272;2023-04-15T00:52:41;6.10;76.70
38333;DHT22;25748;46.670;14.272;2023-04-15T00:55:07;6.00;76.30
38333;DHT22;25748;46.670;14.272;2023-04-15T00:57:34;6.00;76.60
38333;DHT22;25748;46.670;14.272;2023-04-15T01:00:00;6.00;76.80
38333;DHT22;25748;46.670;14.272;2023-04-15T01:02:26;6.00;77.00
38333;DHT22;25748;46.670;14.272;2023-04-15T01:04:52;6.00;76.80
38333;DHT22;25748;46.670;14.272;2023-04-15T01:07:18;6.00;77.10
38333;DHT22;25748;46.670;14.272;2023-04-15T01:09:43;6.00;77.10
38333;DHT22;25748;46.670;14.272;2023-04-15T01:12:11;6.00;77.30
38333;DHT22;25748;46.670;14.272;2023-04-15T01:14:38;6.00;77.30
38333;DHT22;25748;46.670;14.272;2023-04-15T01:17:04;6.00;77.50
38333;DHT22;25748;46.670;14.272;2023-04-15T01:19:30;6.00;77.40
38333;DHT22;25748;46.670;14.272;2023-04-15T01:21:56;6.00;77.50
38333;DHT22;25748;46.670;14.272;2023-04-15T01:24:22;6.00;77.50
38333;DHT22;25748;46.670;14.272;2023-04-15T01:26:48;6.00;77.40
38333;DHT22;25748;46.670;14.272;2023-04-15T01:29:15;6.00;77.50
38333;DHT22;25748;46.670;14.272;2023-04-15T01:31:47;6.00;77.30
38333;DHT22;25748;46.670;14.272;2023-04-15T01:34:14;5.90;77.30
38333;DHT22;25748;46.670;14.272;2023-04-15T01:36:39;5.90;77.50
38333;DHT22;25748;46.670;14.272;2023-04-15T01:39:05;5.90;77.60
38333;DHT22;25748;46.670;14.272;2023-04-15T01:41:31;5.90;77.70
38333;DHT22;25748;46.670;14.272;2023-04-15T01:43:57;5.90;77.70
38333;DHT22;25748;46.670;14.272;2023-04-15T01:46:23;5.90;77.80
38333;DHT22;25748;46.670;14.272;2023-04-15T01:48:48;5.90;77.90
38333;DHT22;25748;46.670;14.272;2023-04-15T01:51:14;5.90;78.00
38333;DHT22;25748;46.670;14.272;2023-04-15T01:53:43;5.90;78.00
38333;DHT22;25748;46.670;14.272;2023-04-15T01:56:08;5.90;78.20
38333;DHT22;25748;46.670;14.272;2023-04-15T01:58:34;5.90;78.20
38333;DHT22;25748;46.670;14.272;2023-04-15T02:01:00;5.90;78.00
38333;DHT22;25748;46.670;14.272;2023-04-15T02:03:27;5.90;78.40
38333;DHT22;25748;46.670;14.272;2023-04-15T02:05:54;5.90;78.30
38333;DHT22;25748;46.670;14.272;2023-04-15T02:08:19;5.90;78.50
38333;DHT22;25748;46.670;14.272;2023-04-15T02:10:45;5.90;78.70
38333;DHT22;25748;46.670;14.272;2023-04-15T02:13:11;5.90;78.80
38333;DHT22;25748;46.670;14.272;2023-04-15T02:15:36;5.90;78.90
38333;DHT22;25748;46.670;14.272;2023-04-15T02:18:03;5.90;78.70
38333;DHT22;25748;46.670;14.272;2023-04-15T02:20:29;5.90;78.80
38333;DHT22;25748;46.670;14.272;2023-04-15T02:22:55;5.90;78.80
38333;DHT22;25748;46.670;14.272;2023-04-15T02:25:21;5.90;78.70
38333;DHT22;25748;46.670;14.272;2023-04-15T02:27:47;5.80;78.30
38333;DHT22;25748;46.670;14.272;2023-04-15T02:30:15;5.90;78.80
38333;DHT22;25748;46.670;14.272;2023-04-15T02:32:44;5.90;79.00
38333;DHT22;25748;46.670;14.272;2023-04-15T02:35:09;5.90;78.80
38333;DHT22;25748;46.670;14.272;2023-04-15T02:37:37;5.90;78.90
38333;DHT22;25748;46.670;14.272;2023-04-15T02:40:08;5.90;79.00
38333;DHT22;25748;46.670;14.272;2023-04-15T02:42:40;5.90;79.10
38333;DHT22;25748;46.670;14.272;2023-04-15T02:45:07;5.90;78.90
38333;DHT22;25748;46.670;14.272;2023-04-15T02:47:34;5.80;78.90
38333;DHT22;25748;46.670;14.272;2023-04-15T02:50:02;5.80;78.70
38333;DHT22;25748;46.670;14.272;2023-04-15T02:52:28;5.80;78.70
38333;DHT22;25748;46.670;14.272;2023-04-15T02:54:53;5.80;78.80
38333;DHT22;25748;46.670;14.272;2023-04-15T02:57:26;5.80;78.80
38333;DHT22;25748;46.670;14.272;2023-04-15T02:59:53;5.70;78.40
38333;DHT22;25748;46.670;14.272;2023-04-15T03:02:18;5.70;78.40
38333;DHT22;25748;46.670;14.272;2023-04-15T03:04:44;5.70;78.90
38333;DHT22;25748;46.670;14.272;2023-04-15T03:07:10;5.70;78.80
38333;DHT22;25748;46.670;14.272;2023-04-15T03:09:36;5.70;78.80
38333;DHT22;25748;46.670;14.272;2023-04-15T03:12:01;5.70;79.10
38333;DHT22;25748;46.670;14.272;2023-04-15T03:14:27;5.70;79.40
38333;DHT22;25748;46.670;14.272;2023-04-15T03:16:53;5.70;78.90
38333;DHT22;25748;46.670;14.272;2023-04-15T03:19:18;5.70;78.80
38333;DHT22;25748;46.670;14.272;2023-04-15T03:21:44;5.70;78.80
38333;DHT22;25748;46.670;14.272;2023-04-15T03:24:10;5.60;78.70
38333;DHT22;25748;46.670;14.272;2023-04-15T03:26:36;5.60;78.60
38333;DHT22;25748;46.670;14.272;2023-04-15T03:29:02;5.60;78.80
38333;DHT22;25748;46.670;14.272;2023-04-15T03:31:27;5.60;78.80
38333;DHT22;25748;46.670;14.272;2023-04-15T03:33:53;5.60;78.30
38333;DHT22;25748;46.670;14.272;2023-04-15T03:36:19;5.50;78.40
38333;DHT22;25748;46.670;14.272;2023-04-15T03:38:45;5.50;78.40
38333;DHT22;25748;46.670;14.272;2023-04-15T03:41:10;5.50;78.30
38333;DHT22;25748;46.670;14.272;2023-04-15T03:43:36;5.40;77.90
38333;DHT22;25748;46.670;14.272;2023-04-15T03:46:02;5.40;78.10
38333;DHT22;25748;46.670;14.272;2023-04-15T03:48:28;5.40;78.20
38333;DHT22;25748;46.670;14.272;2023-04-15T03:50:53;5.40;78.20
38333;DHT22;25748;46.670;14.272;2023-04-15T03:53:20;5.40;78.10
38333;DHT22;25748;46.670;14.272;2023-04-15T03:55:46;5.30;78.00
38333;DHT22;25748;46.670;14.272;2023-04-15T03:58:12;5.30;77.90
38333;DHT22;25748;46.670;14.272;2023-04-15T04:00:38;5.30;78.20
38333;DHT22;25748;46.670;14.272;2023-04-15T04:03:04;5.30;78.10
38333;DHT22;25748;46.670;14.272;2023-04-15T04:05:30;5.30;78.40
38333;DHT22;25748;46.670;14.272;2023-04-15T04:07:56;5.20;78.10
38333;DHT22;25748;46.670;14.272;2023-04-15T04:10:22;5.20;78.60
38333;DHT22;25748;46.670;14.272;2023-04-15T04:12:47;5.20;78.60
38333;DHT22;25748;46.670;14.272;2023-04-15T04:15:13;5.30;78.90
38333;DHT22;25748;46.670;14.272;2023-04-15T04:17:39;5.30;79.00
38333;DHT22;25748;46.670;14.272;2023-04-15T04:20:05;5.20;78.90
38333;DHT22;25748;46.670;14.272;2023-04-15T04:22:38;5.20;79.00
38333;DHT22;25748;46.670;14.272;2023-04-15T04:25:05;5.20;79.20
38333;DHT22;25748;46.670;14.272;2023-04-15T04:27:33;5.20;79.10
38333;DHT22;25748;46.670;14.272;2023-04-15T04:29:59;5.20;79.30
38333;DHT22;25748;46.670;14.272;2023-04-15T04:32:24;5.20;79.40
38333;DHT22;25748;46.670;14.272;2023-04-15T04:34:50;5.20;79.60
38333;DHT22;25748;46.670;14.272;2023-04-15T04:37:16;5.20;79.60
38333;DHT22;25748;46.670;14.272;2023-04-15T04:39:42;5.20;79.60
38333;DHT22;25748;46.670;14.272;2023-04-15T04:42:07;5.10;79.60
38333;DHT22;25748;46.670;14.272;2023-04-15T04:44:33;5.20;79.80
38333;DHT22;25748;46.670;14.272;2023-04-15T04:46:58;5.10;79.60
38333;DHT22;25748;46.670;14.272;2023-04-15T04:49:24;5.10;80.00
38333;DHT22;25748;46.670;14.272;2023-04-15T04:51:50;5.10;80.00
38333;DHT22;25748;46.670;14.272;2023-04-15T04:54:16;5.10;80.30
38333;DHT22;25748;46.670;14.272;2023-04-15T04:56:42;5.20;80.50
38333;DHT22;25748;46.670;14.272;2023-04-15T04:59:08;5.20;80.60
38333;DHT22;25748;46.670;14.272;2023-04-15T05:01:34;5.20;80.80
38333;DHT22;25748;46.670;14.272;2023-04-15T05:04:00;5.20;81.00
38333;DHT22;25748;46.670;14.272;2023-04-15T05:06:25;5.20;81.10
38333;DHT22;25748;46.670;14.272;2023-04-15T05:08:52;5.20;81.10
38333;DHT22;25748;46.670;14.272;2023-04-15T05:11:17;5.20;81.20
38333;DHT22;25748;46.670;14.272;2023-04-15T05:13:43;5.20;81.30
38333;DHT22;25748;46.670;14.272;2023-04-15T05:16:09;5.30;81.50
38333;DHT22;25748;46.670;14.272;2023-04-15T05:18:35;5.20;81.60
38333;DHT22;25748;46.670;14.272;2023-04-15T05:21:01;5.30;81.80
38333;DHT22;25748;46.670;14.272;2023-04-15T05:23:27;5.30;81.80
38333;DHT22;25748;46.670;14.272;2023-04-15T05:25:53;5.30;81.80
38333;DHT22;25748;46.670;14.272;2023-04-15T05:28:18;5.30;81.80
38333;DHT22;25748;46.670;14.272;2023-04-15T05:30:44;5.30;81.70
38333;DHT22;25748;46.670;14.272;2023-04-15T05:33:10;5.30;82.00
38333;DHT22;25748;46.670;14.272;2023-04-15T05:35:36;5.30;81.90
38333;DHT22;25748;46.670;14.272;2023-04-15T05:38:02;5.40;82.70
38333;DHT22;25748;46.670;14.272;2023-04-15T05:40:29;5.40;82.40
38333;DHT22;25748;46.670;14.272;2023-04-15T05:42:55;5.40;82.30
38333;DHT22;25748;46.670;14.272;2023-04-15T05:45:21;5.40;82.40
38333;DHT22;25748;46.670;14.272;2023-04-15T05:47:47;5.40;82.80
38333;DHT22;25748;46.670;14.272;2023-04-15T05:50:15;5.50;82.90
38333;DHT22;25748;46.670;14.272;2023-04-15T05:52:41;5.50;83.00
38333;DHT22;25748;46.670;14.272;2023-04-15T05:55:07;5.50;83.00
38333;DHT22;25748;46.670;14.272;2023-04-15T05:57:33;5.50;83.10
38333;DHT22;25748;46.670;14.272;2023-04-15T05:59:58;5.60;83.40
38333;DHT22;25748;46.670;14.272;2023-04-15T06:02:24;5.60;83.80
38333;DHT22;25748;46.670;14.272;2023-04-15T06:04:50;5.60;83.40
38333;DHT22;25748;46.670;14.272;2023-04-15T06:07:16;5.60;83.40
38333;DHT22;25748;46.670;14.272;2023-04-15T06:09:42;5.60;82.80
38333;DHT22;25748;46.670;14.272;2023-04-15T06:12:09;5.70;83.30
38333;DHT22;25748;46.670;14.272;2023-04-15T06:14:37;5.70;83.40
38333;DHT22;25748;46.670;14.272;2023-04-15T06:17:03;5.70;83.40
38333;DHT22;25748;46.670;14.272;2023-04-15T06:19:29;5.80;83.00
38333;DHT22;25748;46.670;14.272;2023-04-15T06:21:55;5.80;83.30
38333;DHT22;25748;46.670;14.272;2023-04-15T06:24:20;5.90;83.50
38333;DHT22;25748;46.670;14.272;2023-04-15T06:26:46;5.90;83.40
38333;DHT22;25748;46.670;14.272;2023-04-15T06:29:12;5.90;83.50
38333;DHT22;25748;46.670;14.272;2023-04-15T06:31:37;5.90;83.90
38333;DHT22;25748;46.670;14.272;2023-04-15T06:34:03;6.00;83.60
38333;DHT22;25748;46.670;14.272;2023-04-15T06:36:29;6.00;83.60
38333;DHT22;25748;46.670;14.272;2023-04-15T06:38:54;6.10;83.60
38333;DHT22;25748;46.670;14.272;2023-04-15T06:41:21;6.10;83.80
38333;DHT22;25748;46.670;14.272;2023-04-15T06:43:47;6.20;83.60
38333;DHT22;25748;46.670;14.272;2023-04-15T06:46:13;6.20;83.20
38333;DHT22;25748;46.670;14.272;2023-04-15T06:48:40;6.20;82.70
38333;DHT22;25748;46.670;14.272;2023-04-15T06:51:06;6.30;82.80
38333;DHT22;25748;46.670;14.272;2023-04-15T06:53:31;6.30;82.20
38333;DHT22;25748;46.670;14.272;2023-04-15T06:55:57;6.20;82.00
38333;DHT22;25748;46.670;14.272;2023-04-15T06:58:23;6.20;81.90
38333;DHT22;25748;46.670;14.272;2023-04-15T07:00:49;6.30;82.30
38333;DHT22;25748;46.670;14.272;2023-04-15T07:03:14;6.30;82.40
38333;DHT22;25748;46.670;14.272;2023-04-15T07:05:40;6.30;82.50
38333;DHT22;25748;46.670;14.272;2023-04-15T07:08:06;6.40;82.70
38333;DHT22;25748;46.670;14.272;2023-04-15T07:10:33;6.40;83.00
38333;DHT22;25748;46.670;14.272;2023-04-15T07:12:59;6.40;83.20
38333;DHT22;25748;46.670;14.272;2023-04-15T07:15:25;6.50;83.40
38333;DHT22;25748;46.670;14.272;2023-04-15T07:17:51;6.60;83.50
38333;DHT22;25748;46.670;14.272;2023-04-15T07:20:16;6.60;83.30
38333;DHT22;25748;46.670;14.272;2023-04-15T07:22:42;6.60;83.20
38333;DHT22;25748;46.670;14.272;2023-04-15T07:25:08;6.70;83.30
38333;DHT22;25748;46.670;14.272;2023-04-15T07:27:34;6.70;83.40
38333;DHT22;25748;46.670;14.272;2023-04-15T07:30:01;6.80;83.20
38333;DHT22;25748;46.670;14.272;2023-04-15T07:32:26;6.80;83.00
38333;DHT22;25748;46.670;14.272;2023-04-15T07:34:52;6.80;82.40
38333;DHT22;25748;46.670;14.272;2023-04-15T07:37:18;6.80;81.80
38333;DHT22;25748;46.670;14.272;2023-04-15T07:39:44;6.80;82.20
38333;DHT22;25748;46.670;14.272;2023-04-15T07:42:10;6.80;81.90
38333;DHT22;25748;46.670;14.272;2023-04-15T07:44:36;6.80;81.20
38333;DHT22;25748;46.670;14.272;2023-04-15T07:47:02;6.80;81.10
38333;DHT22;25748;46.670;14.272;2023-04-15T07:49:28;6.90;81.40
38333;DHT22;25748;46.670;14.272;2023-04-15T07:51:54;6.90;80.70
38333;DHT22;25748;46.670;14.272;2023-04-15T07:54:21;6.90;80.50
38333;DHT22;25748;46.670;14.272;2023-04-15T07:56:47;7.00;80.20
38333;DHT22;25748;46.670;14.272;2023-04-15T07:59:14;6.90;79.80
38333;DHT22;25748;46.670;14.272;2023-04-15T08:01:42;7.00;80.00
38333;DHT22;25748;46.670;14.272;2023-04-15T08:04:08;7.10;79.60
38333;DHT22;25748;46.670;14.272;2023-04-15T08:06:34;7.00;79.10
38333;DHT22;25748;46.670;14.272;2023-04-15T08:09:01;7.10;78.60
38333;DHT22;25748;46.670;14.272;2023-04-15T08:11:27;7.10;78.90
38333;DHT22;25748;46.670;14.272;2023-04-15T08:13:52;7.20;79.10
38333;DHT22;25748;46.670;14.272;2023-04-15T08:16:23;7.30;78.90
38333;DHT22;25748;46.670;14.272;2023-04-15T08:18:50;7.20;78.00
38333;DHT22;25748;46.670;14.272;2023-04-15T08:21:17;7.20;77.70
38333;DHT22;25748;46.670;14.272;2023-04-15T08:23:44;7.30;77.50
38333;DHT22;25748;46.670;14.272;2023-04-15T08:26:10;7.20;76.20
38333;DHT22;25748;46.670;14.272;2023-04-15T08:28:38;7.30;75.70
38333;DHT22;25748;46.670;14.272;2023-04-15T08:31:04;7.20;74.20
38333;DHT22;25748;46.670;14.272;2023-04-15T08:33:30;7.20;73.50
38333;DHT22;25748;46.670;14.272;2023-04-15T08:35:55;7.30;74.00
38333;DHT22;25748;46.670;14.272;2023-04-15T08:38:22;7.30;73.10
38333;DHT22;25748;46.670;14.272;2023-04-15T08:40:48;7.30;72.70
38333;DHT22;25748;46.670;14.272;2023-04-15T08:43:26;7.30;73.50
38333;DHT22;25748;46.670;14.272;2023-04-15T08:45:53;7.40;73.70
38333;DHT22;25748;46.670;14.272;2023-04-15T08:48:20;7.40;73.30
38333;DHT22;25748;46.670;14.272;2023-04-15T08:50:47;7.30;72.80
38333;DHT22;25748;46.670;14.272;2023-04-15T08:53:14;7.30;73.60
38333;DHT22;25748;46.670;14.272;2023-04-15T08:55:45;7.40;74.10
38333;DHT22;25748;46.670;14.272;2023-04-15T08:58:12;7.50;74.10
38333;DHT22;25748;46.670;14.272;2023-04-15T09:00:41;7.50;74.10
38333;DHT22;25748;46.670;14.272;2023-04-15T09:03:07;7.60;73.80
38333;DHT22;25748;46.670;14.272;2023-04-15T09:05:34;7.70;74.50
38333;DHT22;25748;46.670;14.272;2023-04-15T09:08:01;7.70;74.50
38333;DHT22;25748;46.670;14.272;2023-04-15T09:10:27;7.70;74.00
38333;DHT22;25748;46.670;14.272;2023-04-15T09:12:54;7.80;73.30
38333;DHT22;25748;46.670;14.272;2023-04-15T09:15:20;7.80;73.20
38333;DHT22;25748;46.670;14.272;2023-04-15T09:17:47;7.80;71.70
38333;DHT22;25748;46.670;14.272;2023-04-15T09:20:14;7.90;72.00
38333;DHT22;25748;46.670;14.272;2023-04-15T09:22:41;7.90;71.90
38333;DHT22;25748;46.670;14.272;2023-04-15T09:27:59;8.00;70.90
38333;DHT22;25748;46.670;14.272;2023-04-15T09:30:28;8.00;69.80
38333;DHT22;25748;46.670;14.272;2023-04-15T09:32:59;8.10;69.80
38333;DHT22;25748;46.670;14.272;2023-04-15T09:35:27;8.10;69.60
38333;DHT22;25748;46.670;14.272;2023-04-15T09:38:05;8.10;69.30
38333;DHT22;25748;46.670;14.272;2023-04-15T09:42:58;8.20;69.00
38333;DHT22;25748;46.670;14.272;2023-04-15T09:45:25;8.20;68.60
38333;DHT22;25748;46.670;14.272;2023-04-15T09:47:50;8.00;68.00
38333;DHT22;25748;46.670;14.272;2023-04-15T09:50:18;8.10;68.90
38333;DHT22;25748;46.670;14.272;2023-04-15T09:52:44;8.10;69.30
38333;DHT22;25748;46.670;14.272;2023-04-15T09:55:11;8.20;69.70
38333;DHT22;25748;46.670;14.272;2023-04-15T09:57:38;8.20;69.40
38333;DHT22;25748;46.670;14.272;2023-04-15T10:00:07;8.30;69.90
38333;DHT22;25748;46.670;14.272;2023-04-15T10:02:34;8.30;70.00
38333;DHT22;25748;46.670;14.272;2023-04-15T10:05:01;8.40;69.80
38333;DHT22;25748;46.670;14.272;2023-04-15T10:07:27;8.40;69.50
38333;DHT22;25748;46.670;14.272;2023-04-15T10:09:54;8.40;69.40
38333;DHT22;25748;46.670;14.272;2023-04-15T10:12:21;8.40;68.90
38333;DHT22;25748;46.670;14.272;2023-04-15T10:14:51;8.40;69.00
38333;DHT22;25748;46.670;14.272;2023-04-15T10:17:17;8.50;68.90
38333;DHT22;25748;46.670;14.272;2023-04-15T10:19:52;8.50;68.50
38333;DHT22;25748;46.670;14.272;2023-04-15T10:22:18;8.50;68.70
38333;DHT22;25748;46.670;14.272;2023-04-15T10:24:46;8.60;68.60
38333;DHT22;25748;46.670;14.272;2023-04-15T10:27:12;8.50;67.80
38333;DHT22;25748;46.670;14.272;2023-04-15T10:29:38;8.60;68.00
38333;DHT22;25748;46.670;14.272;2023-04-15T10:32:04;8.70;67.10
38333;DHT22;25748;46.670;14.272;2023-04-15T10:34:30;8.70;66.40
38333;DHT22;25748;46.670;14.272;2023-04-15T10:37:03;8.70;66.80
38333;DHT22;25748;46.670;14.272;2023-04-15T10:42:08;8.70;66.30
38333;DHT22;25748;46.670;14.272;2023-04-15T10:44:56;8.80;66.10
38333;DHT22;25748;46.670;14.272;2023-04-15T10:47:21;8.80;66.10
38333;DHT22;25748;46.670;14.272;2023-04-15T10:49:51;8.70;65.60
38333;DHT22;25748;46.670;14.272;2023-04-15T10:52:22;8.80;65.40
38333;DHT22;25748;46.670;14.272;2023-04-15T10:54:48;8.80;62.80
38333;DHT22;25748;46.670;14.272;2023-04-15T11:00:00;8.80;62.40
38333;DHT22;25748;46.670;14.272;2023-04-15T11:02:53;8.90;62.70
38333;DHT22;25748;46.670;14.272;2023-04-15T11:05:21;8.90;62.30
38333;DHT22;25748;46.670;14.272;2023-04-15T11:07:54;8.90;62.40
38333;DHT22;25748;46.670;14.272;2023-04-15T11:15:40;9.10;63.00
38333;DHT22;25748;46.670;14.272;2023-04-15T11:18:15;9.20;62.70
38333;DHT22;25748;46.670;14.272;2023-04-15T11:20:46;9.20;62.80
38333;DHT22;25748;46.670;14.272;2023-04-15T11:23:17;9.30;62.10
38333;DHT22;25748;46.670;14.272;2023-04-15T11:25:44;9.30;62.50
38333;DHT22;25748;46.670;14.272;2023-04-15T11:28:11;9.40;62.50
38333;DHT22;25748;46.670;14.272;2023-04-15T11:30:38;9.40;62.20
38333;DHT22;25748;46.670;14.272;2023-04-15T11:33:08;9.40;62.60
38333;DHT22;25748;46.670;14.272;2023-04-15T11:35:35;9.40;61.40
38333;DHT22;25748;46.670;14.272;2023-04-15T11:38:04;9.40;62.50
38333;DHT22;25748;46.670;14.272;2023-04-15T11:40:32;9.50;61.00
38333;DHT22;25748;46.670;14.272;2023-04-15T11:43:10;9.50;60.80
38333;DHT22;25748;46.670;14.272;2023-04-15T11:45:47;9.60;61.90
38333;DHT22;25748;46.670;14.272;2023-04-15T11:48:13;9.60;61.70
38333;DHT22;25748;46.670;14.272;2023-04-15T11:50:39;9.60;60.60
38333;DHT22;25748;46.670;14.272;2023-04-15T11:53:09;9.60;61.10
38333;DHT22;25748;46.670;14.272;2023-04-15T11:55:46;9.70;60.70
38333;DHT22;25748;46.670;14.272;2023-04-15T11:58:18;9.80;60.30
38333;DHT22;25748;46.670;14.272;2023-04-15T12:00:52;9.90;59.60
38333;DHT22;25748;46.670;14.272;2023-04-15T12:03:22;9.90;59.50
38333;DHT22;25748;46.670;14.272;2023-04-15T12:06:12;10.00;59.60
38333;DHT22;25748;46.670;14.272;2023-04-15T12:11:38;10.10;59.40
38333;DHT22;25748;46.670;14.272;2023-04-15T12:14:14;10.20;59.30
38333;DHT22;25748;46.670;14.272;2023-04-15T12:16:42;10.20;59.10
38333;DHT22;25748;46.670;14.272;2023-04-15T12:19:10;10.30;59.20
38333;DHT22;25748;46.670;14.272;2023-04-15T12:21:39;10.40;58.60
38333;DHT22;25748;46.670;14.272;2023-04-15T12:24:07;10.50;58.50
38333;DHT22;25748;46.670;14.272;2023-04-15T12:26:44;10.50;58.60
38333;DHT22;25748;46.670;14.272;2023-04-15T12:29:11;10.60;58.80
38333;DHT22;25748;46.670;14.272;2023-04-15T12:31:46;10.60;58.90
38333;DHT22;25748;46.670;14.272;2023-04-15T12:34:13;10.70;57.90
38333;DHT22;25748;46.670;14.272;2023-04-15T12:36:38;10.80;57.60
38333;DHT22;25748;46.670;14.272;2023-04-15T12:39:05;10.90;57.00
38333;DHT22;25748;46.670;14.272;2023-04-15T12:41:37;11.00;56.60
38333;DHT22;25748;46.670;14.272;2023-04-15T12:44:03;11.00;56.60
38333;DHT22;25748;46.670;14.272;2023-04-15T12:46:29;11.00;56.40
38333;DHT22;25748;46.670;14.272;2023-04-15T12:48:56;11.10;56.40
38333;DHT22;25748;46.670;14.272;2023-04-15T12:51:21;11.10;55.70
38333;DHT22;25748;46.670;14.272;2023-04-15T12:53:47;11.20;55.80
38333;DHT22;25748;46.670;14.272;2023-04-15T12:56:14;11.20;54.20
38333;DHT22;25748;46.670;14.272;2023-04-15T12:58:41;11.20;54.20
38333;DHT22;25748;46.670;14.272;2023-04-15T13:01:07;11.20;54.10
38333;DHT22;25748;46.670;14.272;2023-04-15T13:03:33;11.20;54.60
38333;DHT22;25748;46.670;14.272;2023-04-15T13:05:58;11.30;54.90
38333;DHT22;25748;46.670;14.272;2023-04-15T13:08:26;11.40;54.20
38333;DHT22;25748;46.670;14.272;2023-04-15T13:10:52;11.40;52.40
38333;DHT22;25748;46.670;14.272;2023-04-15T13:13:18;11.40;52.80
38333;DHT22;25748;46.670;14.272;2023-04-15T13:15:44;11.50;52.30
38333;DHT22;25748;46.670;14.272;2023-04-15T13:18:10;11.50;52.20
38333;DHT22;25748;46.670;14.272;2023-04-15T13:20:36;11.50;52.40
38333;DHT22;25748;46.670;14.272;2023-04-15T13:23:01;11.60;52.20
38333;DHT22;25748;46.670;14.272;2023-04-15T13:25:27;11.50;50.00
38333;DHT22;25748;46.670;14.272;2023-04-15T13:27:53;11.60;51.00
38333;DHT22;25748;46.670;14.272;2023-04-15T13:30:19;11.60;48.70
38333;DHT22;25748;46.670;14.272;2023-04-15T13:32:44;11.60;47.40
38333;DHT22;25748;46.670;14.272;2023-04-15T13:35:10;11.60;48.20
38333;DHT22;25748;46.670;14.272;2023-04-15T13:37:36;11.50;47.50
38333;DHT22;25748;46.670;14.272;2023-04-15T13:40:02;11.50;47.50
38333;DHT22;25748;46.670;14.272;2023-04-15T13:42:28;11.50;47.90
38333;DHT22;25748;46.670;14.272;2023-04-15T13:44:53;11.50;46.70
38333;DHT22;25748;46.670;14.272;2023-04-15T13:47:19;11.60;47.00
38333;DHT22;25748;46.670;14.272;2023-04-15T13:49:45;11.70;47.70
38333;DHT22;25748;46.670;14.272;2023-04-15T13:52:12;11.60;46.80
38333;DHT22;25748;46.670;14.272;2023-04-15T13:54:39;11.60;47.10
38333;DHT22;25748;46.670;14.272;2023-04-15T13:57:05;11.60;46.90
38333;DHT22;25748;46.670;14.272;2023-04-15T13:59:34;11.60;47.80
38333;DHT22;25748;46.670;14.272;2023-04-15T14:02:00;11.50;47.10
38333;DHT22;25748;46.670;14.272;2023-04-15T14:04:25;11.50;46.80
38333;DHT22;25748;46.670;14.272;2023-04-15T14:06:51;11.50;45.70
38333;DHT22;25748;46.670;14.272;2023-04-15T14:09:17;11.60;46.10
38333;DHT22;25748;46.670;14.272;2023-04-15T14:11:42;11.70;46.60
38333;DHT22;25748;46.670;14.272;2023-04-15T14:14:08;11.60;46.50
38333;DHT22;25748;46.670;14.272;2023-04-15T14:16:34;11.70;46.80
38333;DHT22;25748;46.670;14.272;2023-04-15T14:19:00;11.80;46.50
38333;DHT22;25748;46.670;14.272;2023-04-15T14:21:26;11.80;46.70
38333;DHT22;25748;46.670;14.272;2023-04-15T14:23:56;11.80;46.30
38333;DHT22;25748;46.670;14.272;2023-04-15T14:26:22;11.90;47.00
38333;DHT22;25748;46.670;14.272;2023-04-15T14:28:48;11.90;47.40
38333;DHT22;25748;46.670;14.272;2023-04-15T14:31:14;11.90;47.10
38333;DHT22;25748;46.670;14.272;2023-04-15T14:33:40;11.90;46.70
38333;DHT22;25748;46.670;14.272;2023-04-15T14:36:06;11.90;45.70
38333;DHT22;25748;46.670;14.272;2023-04-15T14:38:35;12.00;46.00
38333;DHT22;25748;46.670;14.272;2023-04-15T14:41:03;12.00;46.00
38333;DHT22;25748;46.670;14.272;2023-04-15T14:43:29;12.00;46.50
38333;DHT22;25748;46.670;14.272;2023-04-15T14:45:55;12.00;46.90
38333;DHT22;25748;46.670;14.272;2023-04-15T14:48:20;11.90;46.00
38333;DHT22;25748;46.670;14.272;2023-04-15T14:50:46;11.80;45.90
38333;DHT22;25748;46.670;14.272;2023-04-15T14:53:12;11.80;46.90
38333;DHT22;25748;46.670;14.272;2023-04-15T14:55:37;11.80;45.60
38333;DHT22;25748;46.670;14.272;2023-04-15T14:58:03;11.80;44.40
38333;DHT22;25748;46.670;14.272;2023-04-15T15:00:29;11.70;45.90
38333;DHT22;25748;46.670;14.272;2023-04-15T15:02:55;11.80;46.20
38333;DHT22;25748;46.670;14.272;2023-04-15T15:05:20;11.80;45.10
38333;DHT22;25748;46.670;14.272;2023-04-15T15:07:46;11.80;44.80
38333;DHT22;25748;46.670;14.272;2023-04-15T15:10:12;11.80;45.70
38333;DHT22;25748;46.670;14.272;2023-04-15T15:12:37;11.90;47.20
38333;DHT22;25748;46.670;14.272;2023-04-15T15:15:03;11.90;47.20
38333;DHT22;25748;46.670;14.272;2023-04-15T15:17:29;12.00;46.80
38333;DHT22;25748;46.670;14.272;2023-04-15T15:19:55;12.10;45.60
38333;DHT22;25748;46.670;14.272;2023-04-15T15:22:21;12.10;45.70
38333;DHT22;25748;46.670;14.272;2023-04-15T15:24:46;12.20;46.20
38333;DHT22;25748;46.670;14.272;2023-04-15T15:27:12;12.20;45.10
38333;DHT22;25748;46.670;14.272;2023-04-15T15:29:38;12.20;45.50
38333;DHT22;25748;46.670;14.272;2023-04-15T15:32:04;12.30;45.80
38333;DHT22;25748;46.670;14.272;2023-04-15T15:34:30;12.30;45.50
38333;DHT22;25748;46.670;14.272;2023-04-15T15:36:55;12.40;45.10
38333;DHT22;25748;46.670;14.272;2023-04-15T15:39:22;12.30;44.50
38333;DHT22;25748;46.670;14.272;2023-04-15T15:41:49;12.30;45.00
38333;DHT22;25748;46.670;14.272;2023-04-15T15:44:15;12.40;45.90